sensor_id;sensor_type;location;lat;lon;timestamp;temperature;humidity
78522;SHT31;67819;51.972;5.678;2024-01-06T00:01:10;7.6;77.7
78522;SHT31;67819;51.972;5.678;2024-01-06T00:03:39;7.5;77.4
78522;SHT31;67819;51.972;5.678;2024-01-06T00:06:11;7.5;77.0
78522;SHT31;67819;51.972;5.678;2024-01-06T00:08:39;7.5;77.6
78522;SHT31;67819;51.972;5.678;2024-01-06T00:11:08;7.5;77.4
78522;SHT31;67819;51.972;5.678;2024-01-06T00:13:37;7.5;77.5
78522;SHT31;67819;51.972;5.678;2024-01-06T00:16:08;7.5;76.6
78522;SHT31;67819;51.972;5.678;2024-01-06T00:18:37;7.5;76.4
78522;SHT31;67819;51.972;5.678;2024-01-06T00:21:05;7.5;76.0
78522;SHT31;67819;51.972;5.678;2024-01-06T00:23:34;7.6;75.2
78522;SHT31;67819;51.972;5.678;2024-01-06T00:26:03;7.5;75.2
78522;SHT31;67819;51.972;5.678;2024-01-06T00:28:32;7.5;75.8
78522;SHT31;67819;51.972;5.678;2024-01-06T00:31:01;7.5;76.1
78522;SHT31;67819;51.972;5.678;2024-01-06T00:33:30;7.5;75.8
78522;SHT31;67819;51.972;5.678;2024-01-06T00:35:58;7.5;75.7
78522;SHT31;67819;51.972;5.678;2024-01-06T00:38:27;7.4;76.2
78522;SHT31;67819;51.972;5.678;2024-01-06T00:40:55;7.4;75.6
78522;SHT31;67819;51.972;5.678;2024-01-06T00:43:24;7.4;75.8
78522;SHT31;67819;51.972;5.678;2024-01-06T00:45:53;7.4;76.4
78522;SHT31;67819;51.972;5.678;2024-01-06T00:48:21;7.4;75.6
78522;SHT31;67819;51.972;5.678;2024-01-06T00:50:50;7.4;75.6
78522;SHT31;67819;51.972;5.678;2024-01-06T00:53:18;7.4;75.7
78522;SHT31;67819;51.972;5.678;2024-01-06T00:55:47;7.3;75.1
78522;SHT31;67819;51.972;5.678;2024-01-06T00:58:15;7.3;74.9
78522;SHT31;67819;51.972;5.678;2024-01-06T01:00:44;7.3;74.7
78522;SHT31;67819;51.972;5.678;2024-01-06T01:03:12;7.3;74.5
78522;SHT31;67819;51.972;5.678;2024-01-06T01:05:41;7.3;74.8
78522;SHT31;67819;51.972;5.678;2024-01-06T01:08:10;7.2;74.6
78522;SHT31;67819;51.972;5.678;2024-01-06T01:10:38;7.2;74.6
78522;SHT31;67819;51.972;5.678;2024-01-06T01:13:07;7.2;74.8
78522;SHT31;67819;51.972;5.678;2024-01-06T01:15:35;7.1;74.4
78522;SHT31;67819;51.972;5.678;2024-01-06T01:18:04;7.1;74.2
78522;SHT31;67819;51.972;5.678;2024-01-06T01:20:33;7.1;74.3
78522;SHT31;67819;51.972;5.678;2024-01-06T01:23:03;7.1;74.8
78522;SHT31;67819;51.972;5.678;2024-01-06T01:25:32;7.1;75.1
78522;SHT31;67819;51.972;5.678;2024-01-06T01:28:00;7.1;74.8
78522;SHT31;67819;51.972;5.678;2024-01-06T01:30:29;7.1;75.0
78522;SHT31;67819;51.972;5.678;2024-01-06T01:32:58;7.1;75.0
78522;SHT31;67819;51.972;5.678;2024-01-06T01:35:29;7.1;75.4
78522;SHT31;67819;51.972;5.678;2024-01-06T01:37:57;7.1;75.2
78522;SHT31;67819;51.972;5.678;2024-01-06T01:40:26;7.1;75.8
78522;SHT31;67819;51.972;5.678;2024-01-06T01:42:54;7.0;75.6
78522;SHT31;67819;51.972;5.678;2024-01-06T01:45:23;7.0;75.7
78522;SHT31;67819;51.972;5.678;2024-01-06T01:47:52;7.0;75.7
78522;SHT31;67819;51.972;5.678;2024-01-06T01:50:20;7.0;76.4
78522;SHT31;67819;51.972;5.678;2024-01-06T01:52:49;7.0;76.5
78522;SHT31;67819;51.972;5.678;2024-01-06T01:55:18;7.0;76.4
78522;SHT31;67819;51.972;5.678;2024-01-06T01:57:47;7.0;76.4
78522;SHT31;67819;51.972;5.678;2024-01-06T02:00:16;7.0;76.5
78522;SHT31;67819;51.972;5.678;2024-01-06T02:02:45;7.0;76.7
78522;SHT31;67819;51.972;5.678;2024-01-06T02:05:14;6.9;76.3
78522;SHT31;67819;51.972;5.678;2024-01-06T02:07:44;6.9;76.7
78522;SHT31;67819;51.972;5.678;2024-01-06T02:10:14;6.9;77.0
78522;SHT31;67819;51.972;5.678;2024-01-06T02:12:43;6.9;77.1
78522;SHT31;67819;51.972;5.678;2024-01-06T02:15:11;6.8;77.4
78522;SHT31;67819;51.972;5.678;2024-01-06T02:17:40;6.8;77.8
78522;SHT31;67819;51.972;5.678;2024-01-06T02:20:11;6.8;77.7
78522;SHT31;67819;51.972;5.678;2024-01-06T02:22:42;6.8;77.5
78522;SHT31;67819;51.972;5.678;2024-01-06T02:25:10;6.7;77.5
78522;SHT31;67819;51.972;5.678;2024-01-06T02:27:40;6.7;77.4
78522;SHT31;67819;51.972;5.678;2024-01-06T02:30:10;6.7;77.3
78522;SHT31;67819;51.972;5.678;2024-01-06T02:32:38;6.6;77.6
78522;SHT31;67819;51.972;5.678;2024-01-06T02:35:07;6.6;77.7
78522;SHT31;67819;51.972;5.678;2024-01-06T02:37:36;6.6;77.8
78522;SHT31;67819;51.972;5.678;2024-01-06T02:40:05;6.6;77.9
78522;SHT31;67819;51.972;5.678;2024-01-06T02:42:34;6.6;77.2
78522;SHT31;67819;51.972;5.678;2024-01-06T02:45:03;6.6;77.5
78522;SHT31;67819;51.972;5.678;2024-01-06T02:47:31;6.5;77.4
78522;SHT31;67819;51.972;5.678;2024-01-06T02:50:00;6.5;76.9
78522;SHT31;67819;51.972;5.678;2024-01-06T02:52:29;6.5;77.1
78522;SHT31;67819;51.972;5.678;2024-01-06T02:54:57;6.6;77.1
78522;SHT31;67819;51.972;5.678;2024-01-06T02:57:27;6.6;76.8
78522;SHT31;67819;51.972;5.678;2024-01-06T02:59:55;6.6;76.6
78522;SHT31;67819;51.972;5.678;2024-01-06T03:02:24;6.6;76.5
78522;SHT31;67819;51.972;5.678;2024-01-06T03:04:52;6.6;77.0
78522;SHT31;67819;51.972;5.678;2024-01-06T03:07:21;6.6;76.6
78522;SHT31;67819;51.972;5.678;2024-01-06T03:09:50;6.6;76.6
78522;SHT31;67819;51.972;5.678;2024-01-06T03:12:18;6.6;76.6
78522;SHT31;67819;51.972;5.678;2024-01-06T03:14:47;6.6;76.8
78522;SHT31;67819;51.972;5.678;2024-01-06T03:17:17;6.6;77.0
78522;SHT31;67819;51.972;5.678;2024-01-06T03:19:48;6.6;76.8
78522;SHT31;67819;51.972;5.678;2024-01-06T03:22:16;6.6;76.8
78522;SHT31;67819;51.972;5.678;2024-01-06T03:24:45;6.6;76.9
78522;SHT31;67819;51.972;5.678;2024-01-06T03:27:13;6.6;76.1
78522;SHT31;67819;51.972;5.678;2024-01-06T03:29:42;6.6;76.4
78522;SHT31;67819;51.972;5.678;2024-01-06T03:32:11;6.6;75.9
78522;SHT31;67819;51.972;5.678;2024-01-06T03:34:40;6.6;76.3
78522;SHT31;67819;51.972;5.678;2024-01-06T03:37:09;6.6;76.6
78522;SHT31;67819;51.972;5.678;2024-01-06T03:39:37;6.6;76.5
78522;SHT31;67819;51.972;5.678;2024-01-06T03:42:06;6.6;76.2
78522;SHT31;67819;51.972;5.678;2024-01-06T03:44:35;6.7;76.1
78522;SHT31;67819;51.972;5.678;2024-01-06T03:47:04;6.7;76.0
78522;SHT31;67819;51.972;5.678;2024-01-06T03:49:32;6.6;76.1
78522;SHT31;67819;51.972;5.678;2024-01-06T03:52:01;6.6;76.1
78522;SHT31;67819;51.972;5.678;2024-01-06T03:54:29;6.6;76.5
78522;SHT31;67819;51.972;5.678;2024-01-06T03:56:58;6.6;76.4
78522;SHT31;67819;51.972;5.678;2024-01-06T03:59:26;6.6;76.6
78522;SHT31;67819;51.972;5.678;2024-01-06T04:01:55;6.6;76.7
78522;SHT31;67819;51.972;5.678;2024-01-06T04:04:24;6.6;76.8
78522;SHT31;67819;51.972;5.678;2024-01-06T04:06:52;6.5;76.7
78522;SHT31;67819;51.972;5.678;2024-01-06T04:09:21;6.5;77.1
78522;SHT31;67819;51.972;5.678;2024-01-06T04:11:49;6.5;77.3
78522;SHT31;67819;51.972;5.678;2024-01-06T04:14:18;6.5;77.4
78522;SHT31;67819;51.972;5.678;2024-01-06T04:16:46;6.5;77.2
78522;SHT31;67819;51.972;5.678;2024-01-06T04:19:15;6.6;77.2
78522;SHT31;67819;51.972;5.678;2024-01-06T04:21:43;6.6;76.4
78522;SHT31;67819;51.972;5.678;2024-01-06T04:24:14;6.5;76.0
78522;SHT31;67819;51.972;5.678;2024-01-06T04:26:42;6.5;75.8
78522;SHT31;67819;51.972;5.678;2024-01-06T04:29:12;6.5;75.8
78522;SHT31;67819;51.972;5.678;2024-01-06T04:31:43;6.4;76.2
78522;SHT31;67819;51.972;5.678;2024-01-06T04:34:12;6.4;76.6
78522;SHT31;67819;51.972;5.678;2024-01-06T04:36:40;6.3;76.2
78522;SHT31;67819;51.972;5.678;2024-01-06T04:39:09;6.3;76.6
78522;SHT31;67819;51.972;5.678;2024-01-06T04:41:39;6.3;76.6
78522;SHT31;67819;51.972;5.678;2024-01-06T04:44:08;6.3;76.1
78522;SHT31;67819;51.972;5.678;2024-01-06T04:46:39;6.2;75.6
78522;SHT31;67819;51.972;5.678;2024-01-06T04:49:07;6.2;76.0
78522;SHT31;67819;51.972;5.678;2024-01-06T04:51:36;6.2;76.3
78522;SHT31;67819;51.972;5.678;2024-01-06T04:54:05;6.1;76.7
78522;SHT31;67819;51.972;5.678;2024-01-06T04:56:35;6.0;77.3
78522;SHT31;67819;51.972;5.678;2024-01-06T04:59:04;6.0;78.0
78522;SHT31;67819;51.972;5.678;2024-01-06T05:01:33;5.9;77.8
78522;SHT31;67819;51.972;5.678;2024-01-06T05:04:01;5.9;77.6
78522;SHT31;67819;51.972;5.678;2024-01-06T05:06:30;5.9;77.5
78522;SHT31;67819;51.972;5.678;2024-01-06T05:08:59;5.9;77.3
78522;SHT31;67819;51.972;5.678;2024-01-06T05:11:27;5.8;77.8
78522;SHT31;67819;51.972;5.678;2024-01-06T05:13:56;5.8;77.9
78522;SHT31;67819;51.972;5.678;2024-01-06T05:16:24;5.8;77.7
78522;SHT31;67819;51.972;5.678;2024-01-06T05:18:54;5.8;77.5
78522;SHT31;67819;51.972;5.678;2024-01-06T05:21:22;5.8;76.8
78522;SHT31;67819;51.972;5.678;2024-01-06T05:23:52;5.8;76.9
78522;SHT31;67819;51.972;5.678;2024-01-06T05:26:20;5.8;76.6
78522;SHT31;67819;51.972;5.678;2024-01-06T05:28:49;5.7;76.6
78522;SHT31;67819;51.972;5.678;2024-01-06T05:31:18;5.7;76.9
78522;SHT31;67819;51.972;5.678;2024-01-06T05:33:48;5.7;76.6
78522;SHT31;67819;51.972;5.678;2024-01-06T05:46:07;5.6;76.5
78522;SHT31;67819;51.972;5.678;2024-01-06T05:48:47;5.6;76.6
78522;SHT31;67819;51.972;5.678;2024-01-06T05:51:16;5.5;76.4
78522;SHT31;67819;51.972;5.678;2024-01-06T05:53:44;5.5;76.5
78522;SHT31;67819;51.972;5.678;2024-01-06T05:56:26;5.5;76.6
78522;SHT31;67819;51.972;5.678;2024-01-06T05:58:55;5.5;75.7
78522;SHT31;67819;51.972;5.678;2024-01-06T06:01:24;5.4;75.6
78522;SHT31;67819;51.972;5.678;2024-01-06T06:03:54;5.4;75.2
78522;SHT31;67819;51.972;5.678;2024-01-06T06:06:23;5.4;75.3
78522;SHT31;67819;51.972;5.678;2024-01-06T06:08:52;5.3;75.3
78522;SHT31;67819;51.972;5.678;2024-01-06T06:11:20;5.3;75.4
78522;SHT31;67819;51.972;5.678;2024-01-06T06:13:49;5.3;75.5
78522;SHT31;67819;51.972;5.678;2024-01-06T06:16:17;5.3;74.9
78522;SHT31;67819;51.972;5.678;2024-01-06T06:18:46;5.2;75.2
78522;SHT31;67819;51.972;5.678;2024-01-06T06:21:17;5.2;75.2
78522;SHT31;67819;51.972;5.678;2024-01-06T06:23:46;5.2;75.4
78522;SHT31;67819;51.972;5.678;2024-01-06T06:26:14;5.1;75.7
78522;SHT31;67819;51.972;5.678;2024-01-06T06:28:43;5.1;75.7
78522;SHT31;67819;51.972;5.678;2024-01-06T06:31:11;5.1;76.1
78522;SHT31;67819;51.972;5.678;2024-01-06T06:33:40;5.0;76.1
78522;SHT31;67819;51.972;5.678;2024-01-06T06:36:09;5.0;76.2
78522;SHT31;67819;51.972;5.678;2024-01-06T06:38:38;5.0;76.5
78522;SHT31;67819;51.972;5.678;2024-01-06T06:41:06;5.0;76.5
78522;SHT31;67819;51.972;5.678;2024-01-06T06:43:35;5.0;76.1
78522;SHT31;67819;51.972;5.678;2024-01-06T06:46:04;5.0;76.3
78522;SHT31;67819;51.972;5.678;2024-01-06T06:48:32;5.0;76.4
78522;SHT31;67819;51.972;5.678;2024-01-06T06:51:02;5.0;76.0
78522;SHT31;67819;51.972;5.678;2024-01-06T06:53:30;5.0;76.4
78522;SHT31;67819;51.972;5.678;2024-01-06T06:55:59;4.9;76.4
78522;SHT31;67819;51.972;5.678;2024-01-06T06:58:28;4.9;76.7
78522;SHT31;67819;51.972;5.678;2024-01-06T07:00:56;4.9;77.2
78522;SHT31;67819;51.972;5.678;2024-01-06T07:03:25;5.0;76.7
78522;SHT31;67819;51.972;5.678;2024-01-06T07:05:53;5.0;76.7
78522;SHT31;67819;51.972;5.678;2024-01-06T07:08:22;5.0;76.5
78522;SHT31;67819;51.972;5.678;2024-01-06T07:10:50;5.0;76.6
78522;SHT31;67819;51.972;5.678;2024-01-06T07:13:21;5.0;76.2
78522;SHT31;67819;51.972;5.678;2024-01-06T07:15:49;5.0;75.7
78522;SHT31;67819;51.972;5.678;2024-01-06T07:18:18;5.0;76.0
78522;SHT31;67819;51.972;5.678;2024-01-06T07:20:49;5.0;76.0
78522;SHT31;67819;51.972;5.678;2024-01-06T07:23:18;5.0;76.0
78522;SHT31;67819;51.972;5.678;2024-01-06T07:25:46;5.0;76.3
78522;SHT31;67819;51.972;5.678;2024-01-06T07:28:17;5.0;76.6
78522;SHT31;67819;51.972;5.678;2024-01-06T07:30:47;5.0;76.7
78522;SHT31;67819;51.972;5.678;2024-01-06T07:33:15;5.0;76.3
78522;SHT31;67819;51.972;5.678;2024-01-06T07:35:44;5.0;76.7
78522;SHT31;67819;51.972;5.678;2024-01-06T07:38:12;5.0;76.9
78522;SHT31;67819;51.972;5.678;2024-01-06T07:40:41;5.0;76.6
78522;SHT31;67819;51.972;5.678;2024-01-06T07:43:10;5.0;76.6
78522;SHT31;67819;51.972;5.678;2024-01-06T07:45:41;5.0;76.2
78522;SHT31;67819;51.972;5.678;2024-01-06T07:48:09;5.1;76.4
78522;SHT31;67819;51.972;5.678;2024-01-06T07:50:38;5.1;76.7
78522;SHT31;67819;51.972;5.678;2024-01-06T07:53:08;5.1;76.9
78522;SHT31;67819;51.972;5.678;2024-01-06T07:55:37;5.2;76.7
78522;SHT31;67819;51.972;5.678;2024-01-06T07:58:06;5.3;76.5
78522;SHT31;67819;51.972;5.678;2024-01-06T08:00:34;5.3;75.8
78522;SHT31;67819;51.972;5.678;2024-01-06T08:03:03;5.4;75.4
78522;SHT31;67819;51.972;5.678;2024-01-06T08:05:32;5.4;75.2
78522;SHT31;67819;51.972;5.678;2024-01-06T08:08:03;5.4;75.2
78522;SHT31;67819;51.972;5.678;2024-01-06T08:10:32;5.4;74.8
78522;SHT31;67819;51.972;5.678;2024-01-06T08:13:00;5.3;75.5
78522;SHT31;67819;51.972;5.678;2024-01-06T08:15:29;5.3;75.5
78522;SHT31;67819;51.972;5.678;2024-01-06T08:17:58;5.3;75.5
78522;SHT31;67819;51.972;5.678;2024-01-06T08:20:27;5.3;75.3
78522;SHT31;67819;51.972;5.678;2024-01-06T08:22:57;5.3;75.5
78522;SHT31;67819;51.972;5.678;2024-01-06T08:25:26;5.3;75.1
78522;SHT31;67819;51.972;5.678;2024-01-06T08:27:54;5.2;75.1
78522;SHT31;67819;51.972;5.678;2024-01-06T08:30:23;5.2;75.5
78522;SHT31;67819;51.972;5.678;2024-01-06T08:32:52;5.1;75.6
78522;SHT31;67819;51.972;5.678;2024-01-06T08:35:20;5.1;75.1
78522;SHT31;67819;51.972;5.678;2024-01-06T08:37:50;5.0;75.4
78522;SHT31;67819;51.972;5.678;2024-01-06T08:40:19;5.0;76.1
78522;SHT31;67819;51.972;5.678;2024-01-06T08:42:48;5.0;75.7
78522;SHT31;67819;51.972;5.678;2024-01-06T08:45:16;4.9;75.9
78522;SHT31;67819;51.972;5.678;2024-01-06T08:47:45;4.9;76.1
78522;SHT31;67819;51.972;5.678;2024-01-06T08:50:13;4.9;75.9
78522;SHT31;67819;51.972;5.678;2024-01-06T08:52:42;4.9;76.4
78522;SHT31;67819;51.972;5.678;2024-01-06T08:55:10;4.9;76.1
78522;SHT31;67819;51.972;5.678;2024-01-06T08:57:39;4.9;76.2
78522;SHT31;67819;51.972;5.678;2024-01-06T09:00:08;4.9;76.6
78522;SHT31;67819;51.972;5.678;2024-01-06T09:02:37;4.9;76.5
78522;SHT31;67819;51.972;5.678;2024-01-06T09:05:07;4.9;76.4
78522;SHT31;67819;51.972;5.678;2024-01-06T09:07:35;4.9;76.3
78522;SHT31;67819;51.972;5.678;2024-01-06T09:10:04;4.9;76.6
78522;SHT31;67819;51.972;5.678;2024-01-06T09:12:33;5.0;76.2
78522;SHT31;67819;51.972;5.678;2024-01-06T09:15:02;5.0;76.2
78522;SHT31;67819;51.972;5.678;2024-01-06T09:17:31;5.0;76.5
78522;SHT31;67819;51.972;5.678;2024-01-06T09:20:01;5.1;76.1
78522;SHT31;67819;51.972;5.678;2024-01-06T09:22:30;5.1;75.8
78522;SHT31;67819;51.972;5.678;2024-01-06T09:24:58;5.1;75.8
78522;SHT31;67819;51.972;5.678;2024-01-06T09:27:27;5.2;75.5
78522;SHT31;67819;51.972;5.678;2024-01-06T09:29:56;5.2;75.2
78522;SHT31;67819;51.972;5.678;2024-01-06T09:32:25;5.2;75.9
78522;SHT31;67819;51.972;5.678;2024-01-06T09:34:53;5.3;75.4
78522;SHT31;67819;51.972;5.678;2024-01-06T09:37:22;5.3;75.2
78522;SHT31;67819;51.972;5.678;2024-01-06T09:39:50;5.4;74.6
78522;SHT31;67819;51.972;5.678;2024-01-06T09:42:19;5.4;74.9
78522;SHT31;67819;51.972;5.678;2024-01-06T09:44:47;5.5;74.9
78522;SHT31;67819;51.972;5.678;2024-01-06T09:47:18;5.5;74.1
78522;SHT31;67819;51.972;5.678;2024-01-06T09:49:49;5.5;74.2
78522;SHT31;67819;51.972;5.678;2024-01-06T09:52:22;5.5;73.5
78522;SHT31;67819;51.972;5.678;2024-01-06T09:54:54;5.5;73.4
78522;SHT31;67819;51.972;5.678;2024-01-06T09:57:23;5.5;73.5
78522;SHT31;67819;51.972;5.678;2024-01-06T09:59:52;5.5;73.2
78522;SHT31;67819;51.972;5.678;2024-01-06T10:02:21;5.5;72.9
78522;SHT31;67819;51.972;5.678;2024-01-06T10:04:51;5.5;73.0
78522;SHT31;67819;51.972;5.678;2024-01-06T10:07:20;5.5;73.0
78522;SHT31;67819;51.972;5.678;2024-01-06T10:09:48;5.4;73.0
78522;SHT31;67819;51.972;5.678;2024-01-06T10:12:17;5.4;73.3
78522;SHT31;67819;51.972;5.678;2024-01-06T10:14:45;5.4;73.0
78522;SHT31;67819;51.972;5.678;2024-01-06T10:17:14;5.4;73.3
78522;SHT31;67819;51.972;5.678;2024-01-06T10:19:44;5.4;73.1
78522;SHT31;67819;51.972;5.678;2024-01-06T10:22:14;5.3;72.8
78522;SHT31;67819;51.972;5.678;2024-01-06T10:24:43;5.3;72.8
78522;SHT31;67819;51.972;5.678;2024-01-06T10:27:11;5.3;72.2
78522;SHT31;67819;51.972;5.678;2024-01-06T10:29:40;5.3;72.3
78522;SHT31;67819;51.972;5.678;2024-01-06T10:32:09;5.3;72.4
78522;SHT31;67819;51.972;5.678;2024-01-06T10:34:38;5.2;72.7
78522;SHT31;67819;51.972;5.678;2024-01-06T10:37:07;5.2;72.6
78522;SHT31;67819;51.972;5.678;2024-01-06T10:39:35;5.1;72.9
78522;SHT31;67819;51.972;5.678;2024-01-06T10:42:06;5.1;73.8
78522;SHT31;67819;51.972;5.678;2024-01-06T10:44:37;5.1;73.6
78522;SHT31;67819;51.972;5.678;2024-01-06T10:47:07;5.0;73.6
78522;SHT31;67819;51.972;5.678;2024-01-06T10:49:36;5.0;73.7
78522;SHT31;67819;51.972;5.678;2024-01-06T10:52:06;5.0;73.7
78522;SHT31;67819;51.972;5.678;2024-01-06T10:54:36;5.0;74.3
78522;SHT31;67819;51.972;5.678;2024-01-06T10:57:06;5.0;74.9
78522;SHT31;67819;51.972;5.678;2024-01-06T10:59:38;5.1;74.4
78522;SHT31;67819;51.972;5.678;2024-01-06T11:02:10;5.1;73.8
78522;SHT31;67819;51.972;5.678;2024-01-06T11:04:43;5.2;73.2
78522;SHT31;67819;51.972;5.678;2024-01-06T11:07:15;5.2;73.4
78522;SHT31;67819;51.972;5.678;2024-01-06T11:09:50;5.2;73.6
78522;SHT31;67819;51.972;5.678;2024-01-06T11:12:19;5.1;73.4
78522;SHT31;67819;51.972;5.678;2024-01-06T11:14:50;5.1;73.9
78522;SHT31;67819;51.972;5.678;2024-01-06T11:17:49;5.1;73.3
78522;SHT31;67819;51.972;5.678;2024-01-06T11:20:20;5.1;73.1
78522;SHT31;67819;51.972;5.678;2024-01-06T11:22:50;5.1;73.2
78522;SHT31;67819;51.972;5.678;2024-01-06T11:25:20;5.1;73.6
78522;SHT31;67819;51.972;5.678;2024-01-06T11:27:50;5.1;73.1
78522;SHT31;67819;51.972;5.678;2024-01-06T11:30:26;5.1;72.6
78522;SHT31;67819;51.972;5.678;2024-01-06T11:32:56;5.1;72.8
78522;SHT31;67819;51.972;5.678;2024-01-06T11:35:26;5.1;72.9
78522;SHT31;67819;51.972;5.678;2024-01-06T11:37:57;5.1;73.5
78522;SHT31;67819;51.972;5.678;2024-01-06T11:40:33;5.1;73.4
78522;SHT31;67819;51.972;5.678;2024-01-06T11:43:03;5.1;73.1
78522;SHT31;67819;51.972;5.678;2024-01-06T11:45:35;5.1;73.0
78522;SHT31;67819;51.972;5.678;2024-01-06T11:48:05;5.1;73.1
78522;SHT31;67819;51.972;5.678;2024-01-06T11:50:36;5.1;73.1
78522;SHT31;67819;51.972;5.678;2024-01-06T11:53:06;5.1;73.7
78522;SHT31;67819;51.972;5.678;2024-01-06T11:55:38;5.1;73.3
78522;SHT31;67819;51.972;5.678;2024-01-06T11:58:08;5.1;73.4
78522;SHT31;67819;51.972;5.678;2024-01-06T12:00:37;5.1;73.8
78522;SHT31;67819;51.972;5.678;2024-01-06T12:03:06;5.1;73.8
78522;SHT31;67819;51.972;5.678;2024-01-06T12:05:35;5.1;73.7
78522;SHT31;67819;51.972;5.678;2024-01-06T12:08:04;5.1;74.2
78522;SHT31;67819;51.972;5.678;2024-01-06T12:10:35;5.1;74.0
78522;SHT31;67819;51.972;5.678;2024-01-06T12:13:05;5.1;74.1
78522;SHT31;67819;51.972;5.678;2024-01-06T12:15:36;5.1;74.3
78522;SHT31;67819;51.972;5.678;2024-01-06T12:18:06;5.1;74.2
78522;SHT31;67819;51.972;5.678;2024-01-06T12:20:35;5.1;74.3
78522;SHT31;67819;51.972;5.678;2024-01-06T12:23:06;5.1;74.3
78522;SHT31;67819;51.972;5.678;2024-01-06T12:25:35;5.1;74.7
78522;SHT31;67819;51.972;5.678;2024-01-06T12:28:05;5.1;74.3
78522;SHT31;67819;51.972;5.678;2024-01-06T12:30:34;5.1;74.3
78522;SHT31;67819;51.972;5.678;2024-01-06T12:33:04;5.1;74.2
78522;SHT31;67819;51.972;5.678;2024-01-06T12:35:34;5.1;74.0
78522;SHT31;67819;51.972;5.678;2024-01-06T12:38:04;5.1;74.0
78522;SHT31;67819;51.972;5.678;2024-01-06T12:40:37;5.1;74.0
78522;SHT31;67819;51.972;5.678;2024-01-06T12:43:09;5.1;74.4
78522;SHT31;67819;51.972;5.678;2024-01-06T12:45:38;5.1;74.6
78522;SHT31;67819;51.972;5.678;2024-01-06T12:48:07;5.1;74.4
78522;SHT31;67819;51.972;5.678;2024-01-06T12:50:35;5.1;74.9
78522;SHT31;67819;51.972;5.678;2024-01-06T12:53:04;5.1;74.8
78522;SHT31;67819;51.972;5.678;2024-01-06T12:55:32;5.1;75.1
78522;SHT31;67819;51.972;5.678;2024-01-06T12:58:02;5.1;74.3
78522;SHT31;67819;51.972;5.678;2024-01-06T13:00:31;5.1;73.9
78522;SHT31;67819;51.972;5.678;2024-01-06T13:02:59;5.0;74.0
78522;SHT31;67819;51.972;5.678;2024-01-06T13:05:30;5.0;74.7
78522;SHT31;67819;51.972;5.678;2024-01-06T13:07:58;5.0;75.0
78522;SHT31;67819;51.972;5.678;2024-01-06T13:10:28;5.0;74.7
78522;SHT31;67819;51.972;5.678;2024-01-06T13:12:57;5.0;74.1
78522;SHT31;67819;51.972;5.678;2024-01-06T13:15:25;5.0;74.4
78522;SHT31;67819;51.972;5.678;2024-01-06T13:17:54;5.0;73.8
78522;SHT31;67819;51.972;5.678;2024-01-06T13:20:23;5.0;73.5
78522;SHT31;67819;51.972;5.678;2024-01-06T13:22:51;5.0;73.2
78522;SHT31;67819;51.972;5.678;2024-01-06T13:25:20;5.0;73.3
78522;SHT31;67819;51.972;5.678;2024-01-06T13:27:49;5.0;73.6
78522;SHT31;67819;51.972;5.678;2024-01-06T13:30:18;5.0;73.2
78522;SHT31;67819;51.972;5.678;2024-01-06T13:32:47;5.0;73.0
78522;SHT31;67819;51.972;5.678;2024-01-06T13:35:17;5.0;73.3
78522;SHT31;67819;51.972;5.678;2024-01-06T13:37:46;5.0;73.2
78522;SHT31;67819;51.972;5.678;2024-01-06T13:40:18;5.0;73.5
78522;SHT31;67819;51.972;5.678;2024-01-06T13:42:48;5.0;73.4
78522;SHT31;67819;51.972;5.678;2024-01-06T13:45:20;5.0;73.2
78522;SHT31;67819;51.972;5.678;2024-01-06T13:47:48;5.0;73.6
78522;SHT31;67819;51.972;5.678;2024-01-06T13:50:18;5.0;73.3
78522;SHT31;67819;51.972;5.678;2024-01-06T13:52:49;5.0;73.6
78522;SHT31;67819;51.972;5.678;2024-01-06T13:55:18;5.0;74.2
78522;SHT31;67819;51.972;5.678;2024-01-06T13:57:46;5.0;73.8
78522;SHT31;67819;51.972;5.678;2024-01-06T14:00:15;5.0;73.5
78522;SHT31;67819;51.972;5.678;2024-01-06T14:02:46;5.0;73.6
78522;SHT31;67819;51.972;5.678;2024-01-06T14:05:15;5.0;73.7
78522;SHT31;67819;51.972;5.678;2024-01-06T14:07:45;4.9;73.9
78522;SHT31;67819;51.972;5.678;2024-01-06T14:10:17;4.9;73.8
78522;SHT31;67819;51.972;5.678;2024-01-06T14:12:45;4.9;73.3
78522;SHT31;67819;51.972;5.678;2024-01-06T14:15:14;4.9;73.7
78522;SHT31;67819;51.972;5.678;2024-01-06T14:17:43;4.8;73.9
78522;SHT31;67819;51.972;5.678;2024-01-06T14:20:18;4.8;74.0
78522;SHT31;67819;51.972;5.678;2024-01-06T14:22:47;4.8;74.3
78522;SHT31;67819;51.972;5.678;2024-01-06T14:25:16;4.8;74.2
78522;SHT31;67819;51.972;5.678;2024-01-06T14:27:46;4.8;74.4
78522;SHT31;67819;51.972;5.678;2024-01-06T14:30:15;4.8;74.5
78522;SHT31;67819;51.972;5.678;2024-01-06T14:32:43;4.8;74.2
78522;SHT31;67819;51.972;5.678;2024-01-06T14:35:12;4.8;74.3
78522;SHT31;67819;51.972;5.678;2024-01-06T14:37:43;4.8;74.6
78522;SHT31;67819;51.972;5.678;2024-01-06T14:40:15;4.8;74.8
78522;SHT31;67819;51.972;5.678;2024-01-06T14:42:44;4.8;74.7
78522;SHT31;67819;51.972;5.678;2024-01-06T14:45:12;4.8;74.9
78522;SHT31;67819;51.972;5.678;2024-01-06T14:47:41;4.8;74.9
78522;SHT31;67819;51.972;5.678;2024-01-06T14:50:10;4.8;75.2
78522;SHT31;67819;51.972;5.678;2024-01-06T14:52:39;4.8;74.9
78522;SHT31;67819;51.972;5.678;2024-01-06T14:55:08;4.9;74.3
78522;SHT31;67819;51.972;5.678;2024-01-06T14:57:37;4.9;74.5
78522;SHT31;67819;51.972;5.678;2024-01-06T15:00:07;4.9;74.5
78522;SHT31;67819;51.972;5.678;2024-01-06T15:02:36;4.9;74.4
78522;SHT31;67819;51.972;5.678;2024-01-06T15:05:06;4.9;74.3
78522;SHT31;67819;51.972;5.678;2024-01-06T15:07:36;4.9;74.5
78522;SHT31;67819;51.972;5.678;2024-01-06T15:10:05;4.9;74.6
78522;SHT31;67819;51.972;5.678;2024-01-06T15:12:36;4.9;74.0
78522;SHT31;67819;51.972;5.678;2024-01-06T15:15:07;4.9;73.8
78522;SHT31;67819;51.972;5.678;2024-01-06T15:17:35;4.9;73.8
78522;SHT31;67819;51.972;5.678;2024-01-06T15:20:05;4.9;73.9
78522;SHT31;67819;51.972;5.678;2024-01-06T15:22:36;4.9;73.7
78522;SHT31;67819;51.972;5.678;2024-01-06T15:25:05;4.9;73.8
78522;SHT31;67819;51.972;5.678;2024-01-06T15:27:34;4.9;73.9
78522;SHT31;67819;51.972;5.678;2024-01-06T15:30:03;4.9;73.8
78522;SHT31;67819;51.972;5.678;2024-01-06T15:32:34;4.9;73.8
78522;SHT31;67819;51.972;5.678;2024-01-06T15:35:03;4.9;73.9
78522;SHT31;67819;51.972;5.678;2024-01-06T15:37:32;4.9;73.6
78522;SHT31;67819;51.972;5.678;2024-01-06T15:40:01;4.9;73.5
78522;SHT31;67819;51.972;5.678;2024-01-06T15:42:31;4.9;73.7
78522;SHT31;67819;51.972;5.678;2024-01-06T15:45:00;4.9;73.7
78522;SHT31;67819;51.972;5.678;2024-01-06T15:47:29;4.9;73.6
78522;SHT31;67819;51.972;5.678;2024-01-06T15:49:57;4.9;73.7
78522;SHT31;67819;51.972;5.678;2024-01-06T15:52:26;4.9;74.0
78522;SHT31;67819;51.972;5.678;2024-01-06T15:54:56;4.9;74.1
78522;SHT31;67819;51.972;5.678;2024-01-06T15:57:25;4.9;74.1
78522;SHT31;67819;51.972;5.678;2024-01-06T15:59:56;4.9;74.0
78522;SHT31;67819;51.972;5.678;2024-01-06T16:02:25;5.0;73.8
78522;SHT31;67819;51.972;5.678;2024-01-06T16:04:54;5.0;73.8
78522;SHT31;67819;51.972;5.678;2024-01-06T16:07:23;5.0;73.5
78522;SHT31;67819;51.972;5.678;2024-01-06T16:09:52;5.1;73.3
78522;SHT31;67819;51.972;5.678;2024-01-06T16:12:20;5.1;73.4
78522;SHT31;67819;51.972;5.678;2024-01-06T16:14:51;5.1;73.5
78522;SHT31;67819;51.972;5.678;2024-01-06T16:17:20;5.1;73.3
78522;SHT31;67819;51.972;5.678;2024-01-06T16:19:48;5.1;72.7
78522;SHT31;67819;51.972;5.678;2024-01-06T16:22:17;5.1;72.7
78522;SHT31;67819;51.972;5.678;2024-01-06T16:24:45;5.1;72.6
78522;SHT31;67819;51.972;5.678;2024-01-06T16:27:14;5.1;72.7
78522;SHT31;67819;51.972;5.678;2024-01-06T16:29:43;5.1;72.7
78522;SHT31;67819;51.972;5.678;2024-01-06T16:32:12;5.1;72.8
78522;SHT31;67819;51.972;5.678;2024-01-06T16:34:40;5.1;73.0
78522;SHT31;67819;51.972;5.678;2024-01-06T16:37:09;5.1;73.4
78522;SHT31;67819;51.972;5.678;2024-01-06T16:39:37;5.1;72.8